createdAt,value
2019-02-08T00:00:08.613Z,63.77
2019-02-08T00:01:21.993Z,63.78
2019-02-08T00:02:27.247Z,63.77
2019-02-08T00:03:32.747Z,63.75
2019-02-08T00:04:38.109Z,63.75
2019-02-08T00:05:43.255Z,63.83
2019-02-08T00:06:48.371Z,63.86
2019-02-08T00:07:53.806Z,63.89
2019-02-08T00:08:58.844Z,63.89
2019-02-08T00:10:06.152Z,63.93
2019-02-08T00:11:11.181Z,63.99
2019-02-08T00:12:16.176Z,63.99
2019-02-08T00:13:21.259Z,64.08
2019-02-08T00:14:26.315Z,64.07
2019-02-08T00:15:32.039Z,64.14
2019-02-08T00:16:37.051Z,64.21
2019-02-08T00:17:42.393Z,64.25
2019-02-08T00:18:47.806Z,64.28
2019-02-08T00:19:52.925Z,64.26
2019-02-08T00:20:57.925Z,64.25
2019-02-08T00:22:02.979Z,64.29
2019-02-08T00:23:08.367Z,64.30
2019-02-08T00:24:14.837Z,64.25
2019-02-08T00:25:20.311Z,64.30
2019-02-08T00:26:25.803Z,64.32
2019-02-08T00:27:30.874Z,64.33
2019-02-08T00:28:35.936Z,64.40
2019-02-08T00:29:41.304Z,64.49
2019-02-08T00:30:46.316Z,64.59
2019-02-08T00:31:51.393Z,64.64
2019-02-08T00:32:56.566Z,64.59
2019-02-08T00:34:01.952Z,64.59
2019-02-08T00:35:07.413Z,64.60
2019-02-08T00:36:12.544Z,64.60
2019-02-08T00:37:17.560Z,64.64
2019-02-08T00:38:23.528Z,64.71
2019-02-08T00:39:28.564Z,64.76
2019-02-08T00:40:33.567Z,64.86
2019-02-08T00:41:38.973Z,64.89
2019-02-08T00:42:44.970Z,64.91
2019-02-08T00:43:50.252Z,64.97
2019-02-08T00:44:55.208Z,65.03
2019-02-08T00:46:00.571Z,65.12
2019-02-08T00:47:05.797Z,65.18
2019-02-08T00:48:11.120Z,65.20
2019-02-08T00:49:16.138Z,65.21
2019-02-08T00:50:22.208Z,65.22
2019-02-08T00:51:27.250Z,65.24
2019-02-08T00:52:32.683Z,65.23
2019-02-08T00:53:37.810Z,65.66
2019-02-08T00:54:43.061Z,65.66
2019-02-08T00:55:48.091Z,65.36
2019-02-08T00:56:53.040Z,65.41
2019-02-08T00:57:58.105Z,65.46
2019-02-08T00:59:03.103Z,65.56
2019-02-08T01:00:11.405Z,65.59
2019-02-08T01:01:16.497Z,65.59
2019-02-08T01:02:21.950Z,65.62
2019-02-08T01:03:27.391Z,65.66
2019-02-08T01:04:32.351Z,65.73
2019-02-08T01:05:37.893Z,65.81
2019-02-08T01:06:42.910Z,65.85
2019-02-08T01:07:48.359Z,65.94
2019-02-08T01:08:53.388Z,66.01
2019-02-08T01:09:58.525Z,66.03
2019-02-08T01:11:06.350Z,65.99
2019-02-08T01:12:11.496Z,65.94
2019-02-08T01:13:16.595Z,65.97
2019-02-08T01:14:21.625Z,65.96
2019-02-08T01:15:27.734Z,65.93
2019-02-08T01:16:32.802Z,65.89
2019-02-08T01:17:38.051Z,65.90
2019-02-08T01:18:43.159Z,65.95
2019-02-08T01:19:48.275Z,65.89
2019-02-08T01:20:53.597Z,65.90
2019-02-08T01:21:58.865Z,65.94
2019-02-08T01:23:04.114Z,65.92
2019-02-08T01:24:09.199Z,65.87
2019-02-08T01:25:17.224Z,65.87
2019-02-08T01:26:22.247Z,65.83
2019-02-08T01:27:27.390Z,65.87
2019-02-08T01:28:32.769Z,65.88
2019-02-08T01:29:38.237Z,65.90
2019-02-08T01:30:43.363Z,65.90
2019-02-08T01:31:48.329Z,65.94
2019-02-08T01:32:53.519Z,65.95
2019-02-08T01:33:58.600Z,65.98
2019-02-08T01:35:03.787Z,65.98
2019-02-08T01:36:08.838Z,65.98
2019-02-08T01:37:13.876Z,66.02
2019-02-08T01:38:18.893Z,66.07
2019-02-08T01:39:23.823Z,66.00
2019-02-08T01:40:35.261Z,66.04
2019-02-08T01:41:40.610Z,66.11
2019-02-08T01:42:45.637Z,66.15
2019-02-08T01:43:50.740Z,66.17
2019-02-08T01:44:55.909Z,66.23
2019-02-08T01:46:01.256Z,66.20
2019-02-08T01:47:06.362Z,66.23
2019-02-08T01:48:11.827Z,66.24
2019-02-08T01:49:16.971Z,66.18
2019-02-08T01:50:23.949Z,66.19
2019-02-08T01:51:29.270Z,66.20
2019-02-08T01:52:34.458Z,66.22
2019-02-08T01:53:39.927Z,66.21
2019-02-08T01:54:45.433Z,66.20
2019-02-08T01:55:50.468Z,66.19
2019-02-08T01:56:55.479Z,66.13
2019-02-08T01:58:00.707Z,66.09
2019-02-08T01:59:05.936Z,66.04
2019-02-08T02:00:15.954Z,66.03
2019-02-08T02:01:21.041Z,66.03
2019-02-08T02:02:25.990Z,66.07
2019-02-08T02:03:31.055Z,66.10
2019-02-08T02:04:36.126Z,66.13
2019-02-08T02:05:41.211Z,66.16
2019-02-08T02:06:46.198Z,66.15
2019-02-08T02:07:51.483Z,66.25
2019-02-08T02:08:56.531Z,66.27
2019-02-08T02:10:01.607Z,66.30
2019-02-08T02:11:06.739Z,66.32
2019-02-08T02:12:11.855Z,66.37
2019-02-08T02:13:18.140Z,66.39
2019-02-08T02:14:23.222Z,66.42
2019-02-08T02:15:28.980Z,66.40
2019-02-08T02:16:34.155Z,66.41
2019-02-08T02:17:39.558Z,66.39
2019-02-08T02:18:45.273Z,66.37
2019-02-08T02:19:50.380Z,66.39
2019-02-08T02:20:55.608Z,66.34
2019-02-08T02:22:00.949Z,66.30
2019-02-08T02:23:07.203Z,66.32
2019-02-08T02:24:12.186Z,66.34
2019-02-08T02:25:17.728Z,66.41
2019-02-08T02:26:23.007Z,66.45
2019-02-08T02:27:28.299Z,66.46
2019-02-08T02:28:33.568Z,66.52
2019-02-08T02:29:38.671Z,66.54
2019-02-08T02:30:44.208Z,66.58
2019-02-08T02:31:49.148Z,66.56
2019-02-08T02:32:54.646Z,66.63
2019-02-08T02:33:59.664Z,66.66
2019-02-08T02:35:06.066Z,66.63
2019-02-08T02:36:11.163Z,66.67
2019-02-08T02:37:16.152Z,66.68
2019-02-08T02:38:21.467Z,66.67
2019-02-08T02:39:26.462Z,66.70
2019-02-08T02:40:31.781Z,66.73
2019-02-08T02:41:37.199Z,66.71
2019-02-08T02:42:43.541Z,66.69
2019-02-08T02:43:48.477Z,66.71
2019-02-08T02:44:53.722Z,66.77
2019-02-08T02:45:58.647Z,66.82
2019-02-08T02:47:03.709Z,66.91
2019-02-08T02:48:11.325Z,66.97
2019-02-08T02:49:16.717Z,67.05
2019-02-08T02:50:22.341Z,67.08
2019-02-08T02:51:27.678Z,67.13
2019-02-08T02:52:33.103Z,67.19
2019-02-08T02:53:38.154Z,67.24
2019-02-08T02:54:43.239Z,67.31
2019-02-08T02:55:48.287Z,67.34
2019-02-08T02:56:53.349Z,67.32
2019-02-08T02:57:58.832Z,67.37
2019-02-08T02:59:06.640Z,67.40
2019-02-08T03:00:18.222Z,67.43
2019-02-08T03:01:23.238Z,67.48
2019-02-08T03:02:28.300Z,67.48
2019-02-08T03:03:33.388Z,67.51
2019-02-08T03:04:38.348Z,67.66
2019-02-08T03:05:43.656Z,67.71
2019-02-08T03:06:48.629Z,67.72
2019-02-08T03:07:53.922Z,67.71
2019-02-08T03:08:58.958Z,67.75
2019-02-08T03:10:06.423Z,67.83
2019-02-08T03:11:12.381Z,67.96
2019-02-08T03:12:17.855Z,68.04
2019-02-08T03:13:22.828Z,68.10
2019-02-08T03:14:27.800Z,68.12
2019-02-08T03:15:33.170Z,68.14
2019-02-08T03:16:38.183Z,68.17
2019-02-08T03:17:43.393Z,68.21
2019-02-08T03:18:48.369Z,68.24
2019-02-08T03:19:53.332Z,68.27
2019-02-08T03:20:58.688Z,68.31
2019-02-08T03:22:03.756Z,68.32
2019-02-08T03:23:08.896Z,68.35
2019-02-08T03:24:13.938Z,68.37
2019-02-08T03:25:21.283Z,68.37
2019-02-08T03:26:26.381Z,68.35
2019-02-08T03:27:31.745Z,68.32
2019-02-08T03:28:36.766Z,68.29
2019-02-08T03:29:41.752Z,68.23
2019-02-08T03:30:52.066Z,68.16
2019-02-08T03:31:57.161Z,68.14
2019-02-08T03:33:02.253Z,68.12
2019-02-08T03:34:07.312Z,68.16
2019-02-08T03:35:15.732Z,68.19
2019-02-08T03:36:21.125Z,68.19
2019-02-08T03:37:26.511Z,68.15
2019-02-08T03:38:31.923Z,68.12
2019-02-08T03:39:37.202Z,68.14
2019-02-08T03:40:42.232Z,68.14
2019-02-08T03:41:47.772Z,68.14
2019-02-08T03:42:52.906Z,68.14
2019-02-08T03:43:57.905Z,68.08
2019-02-08T03:45:04.685Z,68.05
2019-02-08T03:46:09.743Z,68.02
2019-02-08T03:47:14.704Z,68.00
2019-02-08T03:48:19.761Z,67.98
2019-02-08T03:49:25.205Z,67.95
2019-02-08T03:50:30.322Z,67.86
2019-02-08T03:51:35.688Z,67.81
2019-02-08T03:52:41.206Z,67.82
2019-02-08T03:53:46.288Z,67.81
2019-02-08T03:54:51.368Z,67.81
2019-02-08T03:55:58.376Z,67.82
2019-02-08T03:57:03.659Z,67.83
2019-02-08T03:58:10.081Z,67.86
2019-02-08T03:59:15.370Z,67.88
2019-02-08T04:00:27.269Z,67.90
2019-02-08T04:01:32.392Z,67.95
2019-02-08T04:02:37.707Z,67.95
2019-02-08T04:03:43.277Z,68.01
2019-02-08T04:04:48.511Z,68.04
2019-02-08T04:05:53.668Z,68.06
2019-02-08T04:06:58.672Z,68.07
2019-02-08T04:08:04.098Z,68.04
2019-02-08T04:09:09.772Z,68.06
2019-02-08T04:10:16.276Z,68.08
2019-02-08T04:11:21.315Z,68.06
2019-02-08T04:12:26.713Z,68.08
2019-02-08T04:13:31.810Z,68.05
2019-02-08T04:14:37.330Z,68.02
2019-02-08T04:15:42.545Z,67.99
2019-02-08T04:16:47.872Z,67.98
2019-02-08T04:17:53.906Z,67.95
2019-02-08T04:18:58.828Z,67.97
2019-02-08T04:20:05.039Z,67.97
2019-02-08T04:21:10.125Z,67.94
2019-02-08T04:22:15.630Z,67.96
2019-02-08T04:23:20.716Z,67.96
2019-02-08T04:24:29.870Z,67.96
2019-02-08T04:25:32.874Z,67.91
2019-02-08T04:26:37.915Z,67.89
2019-02-08T04:27:43.224Z,67.93
2019-02-08T04:28:48.197Z,67.87
2019-02-08T04:29:53.290Z,67.91
2019-02-08T04:30:58.578Z,67.94
2019-02-08T04:32:03.656Z,67.94
2019-02-08T04:33:09.527Z,67.94
2019-02-08T04:34:14.718Z,67.90
2019-02-08T04:35:20.086Z,67.92
2019-02-08T04:36:25.496Z,67.89
2019-02-08T04:37:30.774Z,67.91
2019-02-08T04:38:35.729Z,67.95
2019-02-08T04:39:41.041Z,67.99
2019-02-08T04:40:46.088Z,68.02
2019-02-08T04:41:51.193Z,68.04
2019-02-08T04:42:56.721Z,68.05
2019-02-08T04:44:01.637Z,68.01
2019-02-08T04:45:07.464Z,68.02
2019-02-08T04:46:12.604Z,68.04
2019-02-08T04:47:18.658Z,68.01
2019-02-08T04:48:23.756Z,68.06
2019-02-08T04:49:28.982Z,68.04
2019-02-08T04:50:34.488Z,68.09
2019-02-08T04:51:40.150Z,68.16
2019-02-08T04:52:45.509Z,68.14
2019-02-08T04:53:50.647Z,68.12
2019-02-08T04:54:55.657Z,68.14
2019-02-08T04:56:00.785Z,68.17
2019-02-08T04:57:05.929Z,68.19
2019-02-08T04:58:10.955Z,68.23
2019-02-08T04:59:16.056Z,68.21
2019-02-08T05:00:29.774Z,68.24
2019-02-08T05:01:34.769Z,68.26
2019-02-08T05:02:39.825Z,68.24
2019-02-08T05:03:44.864Z,68.28
2019-02-08T05:04:49.915Z,68.34
2019-02-08T05:05:54.919Z,68.34
2019-02-08T05:07:00.002Z,68.38
2019-02-08T05:08:05.560Z,68.38
2019-02-08T05:09:10.694Z,68.38
2019-02-08T05:10:17.668Z,68.34
2019-02-08T05:11:22.755Z,68.40
2019-02-08T05:12:27.921Z,68.42
2019-02-08T05:13:33.258Z,68.41
2019-02-08T05:14:38.322Z,68.43
2019-02-08T05:15:43.708Z,68.45
2019-02-08T05:16:48.770Z,68.44
2019-02-08T05:17:54.264Z,68.41
2019-02-08T05:18:59.298Z,68.40
2019-02-08T05:20:05.629Z,68.43
2019-02-08T05:21:10.698Z,68.43
2019-02-08T05:22:15.839Z,68.42
2019-02-08T05:23:20.863Z,68.39
2019-02-08T05:24:25.963Z,68.40
2019-02-08T05:25:31.100Z,68.39
2019-02-08T05:26:36.127Z,68.38
2019-02-08T05:27:41.225Z,68.45
2019-02-08T05:28:46.564Z,68.51
2019-02-08T05:29:51.590Z,68.55
2019-02-08T05:30:57.082Z,68.58
2019-02-08T05:32:02.172Z,68.64
2019-02-08T05:33:07.397Z,68.67
2019-02-08T05:34:12.699Z,68.69
2019-02-08T05:35:17.848Z,68.72
2019-02-08T05:36:22.958Z,68.75
2019-02-08T05:37:28.079Z,68.74
2019-02-08T05:38:33.101Z,68.73
2019-02-08T05:39:38.525Z,68.71
2019-02-08T05:40:43.656Z,68.73
2019-02-08T05:41:48.943Z,68.73
2019-02-08T05:42:53.993Z,68.72
2019-02-08T05:43:58.989Z,68.76
2019-02-08T05:45:05.819Z,68.80
2019-02-08T05:46:11.335Z,68.84
2019-02-08T05:47:16.690Z,68.90
2019-02-08T05:48:21.822Z,68.96
2019-02-08T05:49:27.780Z,69.01
2019-02-08T05:50:32.898Z,69.05
2019-02-08T05:51:38.002Z,69.09
2019-02-08T05:52:43.049Z,69.17
2019-02-08T05:53:48.341Z,69.24
2019-02-08T05:54:54.579Z,69.27
2019-02-08T05:55:59.686Z,69.30
2019-02-08T05:57:04.784Z,69.33
2019-02-08T05:58:09.898Z,69.37
2019-02-08T05:59:14.931Z,69.35
2019-02-08T06:00:25.202Z,69.39
2019-02-08T06:01:30.276Z,69.37
2019-02-08T06:02:35.394Z,69.43
2019-02-08T06:03:40.537Z,69.42
2019-02-08T06:04:45.810Z,69.40
2019-02-08T06:05:51.208Z,69.40
2019-02-08T06:06:56.233Z,69.40
2019-02-08T06:08:01.342Z,69.42
2019-02-08T06:09:09.287Z,69.43
2019-02-08T06:10:14.690Z,69.42
2019-02-08T06:11:19.637Z,69.41
2019-02-08T06:12:24.798Z,69.43
2019-02-08T06:13:30.013Z,69.47
2019-02-08T06:14:35.351Z,69.44
2019-02-08T06:15:41.495Z,69.41
2019-02-08T06:16:47.067Z,69.44
2019-02-08T06:17:52.154Z,69.41
2019-02-08T06:18:57.288Z,69.42
2019-02-08T06:20:02.492Z,69.38
2019-02-08T06:21:07.641Z,69.38
2019-02-08T06:22:12.717Z,69.35
2019-02-08T06:23:17.714Z,69.33
2019-02-08T06:24:23.260Z,69.30
2019-02-08T06:25:28.437Z,69.23
2019-02-08T06:26:33.538Z,69.24
2019-02-08T06:27:39.016Z,69.22
2019-02-08T06:28:44.432Z,69.19
2019-02-08T06:29:49.818Z,69.11
2019-02-08T06:30:54.951Z,69.12
2019-02-08T06:32:00.138Z,69.05
2019-02-08T06:33:06.864Z,69.10
2019-02-08T06:34:12.055Z,69.08
2019-02-08T06:35:19.333Z,69.06
2019-02-08T06:36:24.429Z,69.04
2019-02-08T06:37:29.509Z,69.00
2019-02-08T06:38:34.533Z,69.05
2019-02-08T06:39:40.190Z,69.04
2019-02-08T06:40:46.514Z,69.07
2019-02-08T06:41:51.655Z,69.04
2019-02-08T06:42:56.965Z,69.01
2019-02-08T06:44:02.035Z,68.99
2019-02-08T06:45:08.403Z,68.96
2019-02-08T06:46:13.442Z,68.94
2019-02-08T06:47:18.407Z,68.92
2019-02-08T06:48:23.809Z,68.81
2019-02-08T06:49:28.978Z,68.73
2019-02-08T06:50:33.996Z,68.69
2019-02-08T06:51:39.928Z,68.67
2019-02-08T06:52:45.558Z,68.64
2019-02-08T06:53:50.682Z,68.62
2019-02-08T06:54:55.749Z,68.60
2019-02-08T06:56:00.828Z,68.57
2019-02-08T06:57:20.260Z,68.49
2019-02-08T06:58:38.502Z,68.57
2019-02-08T07:00:05.647Z,68.52
2019-02-08T07:01:24.109Z,68.47
2019-02-08T07:02:38.986Z,68.47
2019-02-08T07:03:56.969Z,68.47
2019-02-08T07:05:10.101Z,68.44
2019-02-08T07:06:33.326Z,68.40
2019-02-08T07:08:05.444Z,68.43
2019-02-08T07:09:21.564Z,68.48
2019-02-08T07:10:46.110Z,68.46
2019-02-08T07:12:03.447Z,68.53
2019-02-08T07:13:40.104Z,68.47
2019-02-08T07:14:56.747Z,68.46
2019-02-08T07:16:39.371Z,68.44
2019-02-08T07:18:03.450Z,68.40
2019-02-08T07:19:28.743Z,68.33
2019-02-08T07:20:40.345Z,68.33
2019-02-08T07:22:01.549Z,68.28
2019-02-08T07:23:40.613Z,68.32
2019-02-08T07:24:54.968Z,68.32
2019-02-08T07:26:16.337Z,68.28
2019-02-08T07:27:26.793Z,68.22
2019-02-08T07:28:48.057Z,68.21
2019-02-08T07:30:03.471Z,68.24
2019-02-08T07:31:26.563Z,68.21
2019-02-08T07:32:49.220Z,68.18
2019-02-08T07:34:04.888Z,68.20
2019-02-08T07:35:18.806Z,68.19
2019-02-08T07:36:32.389Z,68.16
2019-02-08T07:38:01.812Z,68.17
2019-02-08T07:39:29.476Z,68.17
2019-02-08T07:40:45.825Z,68.16
2019-02-08T07:42:06.021Z,68.11
2019-02-08T07:43:39.837Z,68.04
2019-02-08T07:45:05.377Z,68.03
2019-02-08T07:46:30.105Z,67.97
2019-02-08T07:47:50.018Z,67.94
2019-02-08T07:49:15.270Z,67.94
2019-02-08T07:50:29.062Z,67.99
2019-02-08T07:51:53.366Z,67.98
2019-02-08T07:53:17.831Z,67.99
2019-02-08T07:54:43.692Z,67.92
2019-02-08T07:55:57.972Z,67.88
2019-02-08T07:57:22.301Z,67.81
2019-02-08T07:58:47.803Z,67.78
2019-02-08T08:00:11.947Z,67.73
2019-02-08T08:01:37.168Z,67.68
2019-02-08T08:03:04.729Z,67.62
2019-02-08T08:04:31.923Z,67.58
2019-02-08T08:06:09.398Z,67.54
2019-02-08T08:07:42.660Z,67.52
2019-02-08T08:09:09.496Z,67.49
2019-02-08T08:10:43.111Z,67.46
2019-02-08T08:12:10.595Z,67.44
2019-02-08T08:13:27.118Z,67.33
2019-02-08T08:14:44.058Z,67.28
2019-02-08T08:16:07.194Z,67.21
2019-02-08T08:17:24.909Z,67.07
2019-02-08T08:18:51.990Z,67.00
2019-02-08T08:20:07.212Z,66.91
2019-02-08T08:21:34.815Z,66.87
2019-02-08T08:23:05.738Z,66.82
2019-02-08T08:24:23.451Z,66.83
2019-02-08T08:25:51.079Z,66.78
2019-02-08T08:27:17.632Z,66.73
2019-02-08T08:28:47.779Z,66.75
2019-02-08T08:30:22.874Z,66.79
2019-02-08T08:31:49.591Z,66.70
2019-02-08T08:33:09.809Z,66.71
2019-02-08T08:34:28.061Z,66.69
2019-02-08T08:35:59.114Z,66.69
2019-02-08T08:37:48.151Z,66.69
2019-02-08T08:39:12.629Z,66.66
2019-02-08T08:40:59.322Z,66.55
2019-02-08T08:42:48.346Z,66.50
2019-02-08T08:44:33.363Z,66.46
2019-02-08T08:46:18.699Z,66.49
2019-02-08T08:48:05.143Z,66.55
2019-02-08T08:49:45.664Z,66.36
2019-02-08T08:51:35.529Z,66.30
2019-02-08T08:52:59.994Z,66.24
2019-02-08T08:54:28.869Z,66.21
2019-02-08T08:56:31.007Z,66.22
2019-02-08T08:57:59.362Z,66.22
2019-02-08T08:59:30.632Z,66.30
2019-02-08T09:01:05.460Z,66.29
2019-02-08T09:02:58.353Z,66.35
2019-02-08T09:04:54.392Z,66.33
2019-02-08T09:06:36.425Z,66.27
2019-02-08T09:08:26.613Z,65.84
2019-02-08T09:10:27.312Z,65.84
2019-02-08T09:12:25.798Z,66.18
2019-02-08T09:13:53.357Z,66.09
2019-02-08T09:15:11.775Z,66.07
2019-02-08T09:16:52.589Z,66.07
2019-02-08T09:18:23.569Z,66.08
2019-02-08T09:20:21.792Z,66.01
2019-02-08T09:22:08.873Z,65.98
2019-02-08T09:24:01.208Z,65.82
2019-02-08T09:25:15.766Z,65.82
2019-02-08T09:27:01.645Z,65.78
2019-02-08T09:28:23.077Z,65.69
2019-02-08T09:29:53.852Z,65.64
2019-02-08T09:31:45.055Z,65.66
2019-02-08T09:33:24.557Z,65.65
2019-02-08T09:35:09.722Z,65.33
2019-02-08T09:36:52.046Z,65.64
2019-02-08T09:38:41.277Z,65.64
2019-02-08T09:40:28.554Z,65.38
2019-02-08T09:42:45.501Z,65.40
2019-02-08T09:44:37.190Z,65.30
2019-02-08T09:46:29.035Z,65.10
2019-02-08T09:48:13.231Z,64.99
2019-02-08T09:49:49.961Z,64.94
2019-02-08T09:51:28.721Z,65.13
2019-02-08T09:53:11.997Z,65.13
2019-02-08T09:54:48.808Z,64.43
2019-02-08T09:56:40.651Z,64.43
2019-02-08T09:58:42.296Z,64.80
2019-02-08T10:00:24.251Z,64.69
2019-02-08T10:02:09.830Z,64.52
2019-02-08T10:03:55.424Z,64.58
2019-02-08T10:05:40.394Z,64.40
2019-02-08T10:07:18.861Z,64.57
2019-02-08T10:09:08.395Z,64.59
2019-02-08T10:10:53.636Z,64.52
2019-02-08T10:12:39.104Z,64.55
2019-02-08T10:14:18.632Z,64.55
2019-02-08T10:16:09.814Z,64.64
2019-02-08T10:17:54.679Z,64.58
2019-02-08T10:19:46.254Z,64.56
2019-02-08T10:21:37.257Z,64.54
2019-02-08T10:23:18.499Z,64.56
2019-02-08T10:25:07.548Z,64.81
2019-02-08T10:26:34.857Z,64.81
2019-02-08T10:28:06.363Z,64.52
2019-02-08T10:29:42.831Z,64.44
2019-02-08T10:31:24.226Z,64.42
2019-02-08T10:33:25.109Z,64.38
2019-02-08T10:35:07.443Z,64.38
2019-02-08T10:36:53.568Z,64.35
2019-02-08T10:39:06.929Z,64.31
2019-02-08T10:40:42.433Z,64.33
2019-02-08T10:42:23.947Z,64.33
2019-02-08T10:44:08.652Z,64.28
2019-02-08T10:45:52.811Z,64.22
2019-02-08T10:47:34.131Z,64.14
2019-02-08T10:49:21.995Z,64.38
2019-02-08T10:50:56.389Z,64.38
2019-02-08T10:52:42.064Z,64.06
2019-02-08T10:54:28.752Z,63.91
2019-02-08T10:56:30.503Z,64.00
2019-02-08T10:58:21.590Z,64.00
2019-02-08T11:00:16.997Z,63.95
2019-02-08T11:02:17.839Z,63.92
2019-02-08T11:04:01.227Z,63.89
2019-02-08T11:05:53.534Z,63.82
2019-02-08T11:07:34.350Z,63.69
2019-02-08T11:09:25.147Z,63.69
2019-02-08T11:11:08.122Z,63.49
2019-02-08T11:12:55.331Z,63.50
2019-02-08T11:14:35.226Z,63.52
2019-02-08T11:16:29.522Z,63.48
2019-02-08T11:18:17.385Z,63.47
2019-02-08T11:19:22.334Z,63.39
2019-02-08T11:20:27.631Z,63.31
2019-02-08T11:21:33.071Z,63.27
2019-02-08T11:22:38.178Z,63.26
2019-02-08T11:23:43.202Z,63.15
2019-02-08T11:24:48.241Z,63.16
2019-02-08T11:25:53.721Z,63.11
2019-02-08T11:27:00.460Z,63.10
2019-02-08T11:28:05.604Z,63.05
2019-02-08T11:29:10.765Z,63.02
2019-02-08T11:30:17.238Z,63.02
2019-02-08T11:31:22.364Z,62.91
2019-02-08T11:32:42.571Z,62.89
2019-02-08T11:33:34.310Z,62.84
2019-02-08T11:34:39.415Z,62.83
2019-02-08T11:35:44.509Z,62.81
2019-02-08T11:36:49.626Z,62.76
2019-02-08T11:37:54.718Z,62.75
2019-02-08T11:38:59.671Z,62.72
2019-02-08T11:40:08.603Z,62.66
2019-02-08T11:41:14.133Z,62.62
2019-02-08T11:42:19.197Z,62.55
2019-02-08T11:43:24.311Z,62.53
2019-02-08T11:44:29.770Z,62.55
2019-02-08T11:45:35.260Z,62.54
2019-02-08T11:46:40.399Z,62.59
2019-02-08T11:47:45.558Z,62.56
2019-02-08T11:48:51.656Z,62.47
2019-02-08T11:49:56.896Z,62.45
2019-02-08T11:51:01.888Z,62.46
2019-02-08T11:52:07.011Z,62.42
2019-02-08T11:53:12.106Z,62.42
2019-02-08T11:54:18.107Z,62.45
2019-02-08T11:55:23.361Z,62.44
2019-02-08T11:56:30.051Z,62.44
2019-02-08T11:57:35.202Z,62.50
2019-02-08T11:58:40.443Z,62.48
2019-02-08T11:59:45.612Z,62.48
2019-02-08T12:00:53.311Z,62.44
2019-02-08T12:01:59.280Z,62.43
2019-02-08T12:03:04.711Z,62.37
2019-02-08T12:04:09.918Z,62.31
2019-02-08T12:05:15.354Z,62.33
2019-02-08T12:06:20.463Z,62.36
2019-02-08T12:07:25.477Z,62.35
2019-02-08T12:08:30.682Z,62.37
2019-02-08T12:09:36.267Z,62.40
2019-02-08T12:10:41.821Z,62.38
2019-02-08T12:11:46.769Z,62.36
2019-02-08T12:12:51.862Z,62.32
2019-02-08T12:13:57.280Z,62.28
2019-02-08T12:15:02.566Z,62.25
2019-02-08T12:16:07.799Z,62.27
2019-02-08T12:17:12.738Z,62.29
2019-02-08T12:18:18.730Z,62.31
2019-02-08T12:19:23.949Z,62.35
2019-02-08T12:20:29.136Z,62.35
2019-02-08T12:21:34.356Z,62.30
2019-02-08T12:22:39.555Z,62.28
2019-02-08T12:23:44.625Z,62.29
2019-02-08T12:24:49.788Z,62.25
2019-02-08T12:25:54.956Z,62.27
2019-02-08T12:27:00.146Z,62.32
2019-02-08T12:28:05.563Z,62.32
2019-02-08T12:29:10.670Z,62.30
2019-02-08T12:30:20.869Z,62.26
2019-02-08T12:31:25.888Z,62.21
2019-02-08T12:32:30.864Z,62.11
2019-02-08T12:33:36.484Z,62.12
2019-02-08T12:34:41.601Z,62.06
2019-02-08T12:35:46.890Z,62.05
2019-02-08T12:36:52.286Z,62.06
2019-02-08T12:37:57.542Z,62.10
2019-02-08T12:39:02.624Z,62.10
2019-02-08T12:40:07.953Z,62.11
2019-02-08T12:41:13.405Z,62.11
2019-02-08T12:42:18.518Z,62.09
2019-02-08T12:43:23.854Z,62.02
2019-02-08T12:44:29.277Z,62.06
2019-02-08T12:45:34.585Z,62.08
2019-02-08T12:46:39.951Z,62.09
2019-02-08T12:47:44.994Z,62.07
2019-02-08T12:48:50.587Z,62.07
2019-02-08T12:49:55.962Z,62.07
2019-02-08T12:51:01.396Z,61.96
2019-02-08T12:52:06.796Z,61.93
2019-02-08T12:53:11.875Z,61.90
2019-02-08T12:54:16.969Z,61.86
2019-02-08T12:55:22.105Z,61.83
2019-02-08T12:56:27.240Z,61.83
2019-02-08T12:57:32.207Z,61.80
2019-02-08T12:58:37.419Z,61.71
2019-02-08T12:59:42.502Z,61.69
2019-02-08T13:00:47.980Z,61.62
2019-02-08T13:01:53.030Z,61.58
2019-02-08T13:02:58.466Z,61.56
2019-02-08T13:04:04.960Z,61.57
2019-02-08T13:05:11.203Z,61.53
2019-02-08T13:06:16.430Z,61.50
2019-02-08T13:07:21.885Z,61.44
2019-02-08T13:08:27.396Z,61.51
2019-02-08T13:09:32.655Z,61.44
2019-02-08T13:10:37.797Z,61.47
2019-02-08T13:11:43.067Z,61.51
2019-02-08T13:12:48.869Z,61.49
2019-02-08T13:13:53.998Z,61.50
2019-02-08T13:14:59.371Z,61.49
2019-02-08T13:16:04.774Z,61.47
2019-02-08T13:17:09.974Z,61.51
2019-02-08T13:18:15.095Z,61.50
2019-02-08T13:19:20.548Z,61.48
2019-02-08T13:20:25.953Z,61.50
2019-02-08T13:21:31.209Z,61.50
2019-02-08T13:22:36.293Z,61.56
2019-02-08T13:23:43.916Z,61.56
2019-02-08T13:24:49.905Z,61.56
2019-02-08T13:25:58.340Z,61.57
2019-02-08T13:27:03.436Z,61.59
2019-02-08T13:28:08.566Z,61.55
2019-02-08T13:29:14.054Z,61.54
2019-02-08T13:30:24.957Z,61.61
2019-02-08T13:31:30.238Z,61.57
2019-02-08T13:32:35.361Z,61.61
2019-02-08T13:33:41.102Z,61.57
2019-02-08T13:34:46.196Z,61.60
2019-02-08T13:35:51.578Z,61.58
2019-02-08T13:36:56.661Z,61.55
2019-02-08T13:38:01.813Z,61.58
2019-02-08T13:39:09.383Z,61.56
2019-02-08T13:40:15.550Z,61.54
2019-02-08T13:41:20.605Z,61.52
2019-02-08T13:42:26.584Z,61.53
2019-02-08T13:43:31.761Z,61.52
2019-02-08T13:44:37.255Z,61.46
2019-02-08T13:45:42.421Z,61.45
2019-02-08T13:46:48.685Z,61.47
2019-02-08T13:47:53.944Z,61.50
2019-02-08T13:48:59.151Z,61.54
2019-02-08T13:50:05.226Z,61.57
2019-02-08T13:51:10.455Z,61.58
2019-02-08T13:52:16.202Z,61.58
2019-02-08T13:53:21.277Z,61.55
2019-02-08T13:54:26.545Z,61.53
2019-02-08T13:55:31.783Z,61.52
2019-02-08T13:56:36.921Z,61.48
2019-02-08T13:57:42.091Z,61.49
2019-02-08T13:58:47.340Z,61.46
2019-02-08T13:59:52.607Z,61.50
2019-02-08T14:00:57.701Z,61.56
2019-02-08T14:02:02.821Z,61.63
2019-02-08T14:03:08.497Z,61.64
2019-02-08T14:04:14.810Z,61.65
2019-02-08T14:05:19.954Z,61.70
2019-02-08T14:06:26.242Z,61.74
2019-02-08T14:07:31.380Z,61.76
2019-02-08T14:08:36.580Z,61.78
2019-02-08T14:09:41.810Z,61.87
2019-02-08T14:10:47.002Z,61.94
2019-02-08T14:11:52.309Z,62.03
2019-02-08T14:12:57.493Z,62.10
2019-02-08T14:14:02.863Z,62.11
2019-02-08T14:15:08.601Z,62.15
2019-02-08T14:16:13.683Z,62.16
2019-02-08T14:17:18.846Z,62.18
2019-02-08T14:18:24.005Z,62.18
2019-02-08T14:19:30.785Z,62.19
2019-02-08T14:20:36.048Z,62.24
2019-02-08T14:21:41.123Z,62.31
2019-02-08T14:22:46.476Z,62.39
2019-02-08T14:23:51.615Z,62.41
2019-02-08T14:24:56.740Z,62.48
2019-02-08T14:26:02.332Z,62.53
2019-02-08T14:27:08.798Z,62.61
2019-02-08T14:28:14.132Z,62.67
2019-02-08T14:29:19.436Z,62.70
2019-02-08T14:30:30.308Z,62.73
2019-02-08T14:31:35.576Z,62.75
2019-02-08T14:32:41.223Z,62.82
2019-02-08T14:33:46.386Z,62.86
2019-02-08T14:34:51.653Z,62.88
2019-02-08T14:35:56.792Z,62.96
2019-02-08T14:37:02.148Z,63.02
2019-02-08T14:38:11.094Z,63.03
2019-02-08T14:39:16.793Z,63.02
2019-02-08T14:40:22.979Z,63.04
2019-02-08T14:41:28.124Z,63.04
2019-02-08T14:42:33.236Z,63.10
2019-02-08T14:43:38.377Z,63.14
2019-02-08T14:44:43.476Z,63.22
2019-02-08T14:45:48.873Z,63.23
2019-02-08T14:46:54.150Z,63.29
2019-02-08T14:47:59.516Z,63.30
2019-02-08T14:49:05.075Z,63.35
2019-02-08T14:50:12.706Z,63.35
2019-02-08T14:51:17.890Z,63.36
2019-02-08T14:52:23.389Z,63.37
2019-02-08T14:53:28.991Z,63.38
2019-02-08T14:54:34.196Z,63.41
2019-02-08T14:55:40.173Z,63.43
2019-02-08T14:56:47.920Z,63.46
2019-02-08T14:57:53.644Z,63.46
2019-02-08T14:58:59.816Z,63.47
2019-02-08T15:00:08.207Z,63.53
2019-02-08T15:01:13.278Z,63.58
2019-02-08T15:02:18.335Z,63.60
2019-02-08T15:03:23.639Z,63.64
2019-02-08T15:04:28.940Z,63.65
2019-02-08T15:05:34.229Z,63.66
2019-02-08T15:06:42.393Z,63.70
2019-02-08T15:07:48.201Z,63.68
2019-02-08T15:08:56.543Z,63.70
2019-02-08T15:10:01.738Z,63.66
2019-02-08T15:11:06.808Z,63.65
2019-02-08T15:12:11.865Z,63.68
2019-02-08T15:13:17.663Z,63.67
2019-02-08T15:14:24.193Z,63.68
2019-02-08T15:15:29.555Z,63.64
2019-02-08T15:16:34.799Z,63.61
2019-02-08T15:17:40.027Z,63.57
2019-02-08T15:18:45.222Z,63.54
2019-02-08T15:19:50.506Z,63.54
2019-02-08T15:20:57.065Z,63.51
2019-02-08T15:22:02.303Z,63.51
2019-02-08T15:23:07.520Z,63.49
2019-02-08T15:24:12.986Z,63.51
2019-02-08T15:25:19.479Z,63.52